Time;durP1;ratioP1;P1;durP2;ratioP2;P2;SDS_P1;SDS_P2;PMS_P1;PMS_P2;Temp;Humidity;BMP_temperature;BMP_pressure;BME280_temperature;BME280_humidity;BME280_pressure;Samples;Min_cycle;Max_cycle;Signal;HPM_P1;HPM_P2
2021/09/08 00:00:28;;;;;;;;;;;19.00;98.90;;;;;;2065934;28;726;-65
2021/09/08 00:01:48;;;;;;;;;;;19.00;98.90;;;;;;2062581;28;1906;-66
2021/09/08 00:03:07;;;;;;;;;;;18.90;98.90;;;;;;2070873;28;800;-66
2021/09/08 00:04:27;;;;;;;;;;;19.00;99.00;;;;;;2065689;28;1267;-66
2021/09/08 00:05:46;;;;;;;;;;;19.00;99.30;;;;;;2070775;28;769;-65
2021/09/08 00:07:05;;;;;;;;;;;18.90;99.30;;;;;;2059186;28;1640;-65
2021/09/08 00:08:25;;;;;;;;;;;19.00;99.10;;;;;;2071015;28;749;-65
2021/09/08 00:09:45;;;;;;;;;;;19.00;99.10;;;;;;2082334;28;746;-65
2021/09/08 00:11:04;;;;;;;;;;;19.00;99.10;;;;;;2066013;28;799;-65
2021/09/08 00:12:23;;;;;;;;;;;19.00;99.10;;;;;;2065866;28;761;-65
2021/09/08 00:13:42;;;;;;;;;;;18.90;99.10;;;;;;2070739;28;727;-65
2021/09/08 00:15:02;;;;;;;;;;;18.90;99.10;;;;;;2074363;28;782;-65
2021/09/08 00:16:21;;;;;;;;;;;18.90;99.10;;;;;;2081358;28;1680;-65
2021/09/08 00:17:40;;;;;;;;;;;18.90;99.10;;;;;;2074208;28;769;-66
2021/09/08 00:18:59;;;;;;;;;;;19.00;99.20;;;;;;2067778;28;1012;-65
2021/09/08 00:20:18;;;;;;;;;;;18.90;99.20;;;;;;2080323;28;1443;-66
2021/09/08 00:21:37;;;;;;;;;;;18.90;99.20;;;;;;2069031;28;1906;-66
2021/09/08 00:22:57;;;;;;;;;;;18.90;99.50;;;;;;2079180;28;728;-65
2021/09/08 00:24:16;;;;;;;;;;;18.90;99.20;;;;;;2072905;28;1444;-65
2021/09/08 00:25:35;;;;;;;;;;;18.90;99.30;;;;;;2066037;28;741;-65
2021/09/08 00:26:54;;;;;;;;;;;18.90;99.30;;;;;;2057286;28;724;-66
2021/09/08 00:28:13;;;;;;;;;;;18.90;99.30;;;;;;2075705;28;731;-65
2021/09/08 00:29:33;;;;;;;;;;;18.90;99.30;;;;;;2068932;28;767;-65
2021/09/08 00:30:54;;;;;;;;;;;18.90;99.30;;;;;;2065670;28;759;-66
2021/09/08 00:32:14;;;;;;;;;;;18.90;99.30;;;;;;2062933;28;779;-66
2021/09/08 00:33:33;;;;;;;;;;;18.90;99.40;;;;;;2062661;28;753;-65
2021/09/08 00:34:52;;;;;;;;;;;18.90;99.30;;;;;;2054369;28;744;-65
2021/09/08 00:36:12;;;;;;;;;;;18.90;99.70;;;;;;2067065;28;993;-65
2021/09/08 00:37:31;;;;;;;;;;;18.90;99.40;;;;;;2070634;28;1400;-66
2021/09/08 00:38:50;;;;;;;;;;;18.90;99.40;;;;;;2070782;28;730;-65
2021/09/08 00:40:10;;;;;;;;;;;18.90;99.70;;;;;;2078891;28;758;-65
2021/09/08 00:41:30;;;;;;;;;;;18.90;99.40;;;;;;2065607;28;1903;-65
2021/09/08 00:42:49;;;;;;;;;;;18.90;99.40;;;;;;2062648;28;723;-65
2021/09/08 00:44:12;;;;;;;;;;;18.90;99.40;;;;;;2070846;28;1456;-65
2021/09/08 00:45:31;;;;;;;;;;;18.90;99.50;;;;;;2065689;28;750;-65
2021/09/08 00:46:51;;;;;;;;;;;18.90;99.50;;;;;;2070044;28;1357;-65
2021/09/08 00:48:12;;;;;;;;;;;18.90;99.50;;;;;;2070663;28;1549;-65
2021/09/08 00:49:32;;;;;;;;;;;18.90;99.50;;;;;;2078741;28;1045;-66
2021/09/08 00:50:51;;;;;;;;;;;18.90;99.90;;;;;;2069321;28;886;-65
2021/09/08 00:52:15;;;;;;;;;;;18.90;99.60;;;;;;2074064;28;1698;-65
2021/09/08 00:53:35;;;;;;;;;;;18.90;99.60;;;;;;2073424;28;740;-65
2021/09/08 00:54:54;;;;;;;;;;;18.90;99.60;;;;;;2070436;28;710;-65
2021/09/08 00:56:15;;;;;;;;;;;18.90;99.70;;;;;;2070234;28;714;-65
2021/09/08 00:57:34;;;;;;;;;;;18.90;99.70;;;;;;2070602;28;748;-65
2021/09/08 00:58:54;;;;;;;;;;;18.90;99.90;;;;;;2065696;28;812;-65
2021/09/08 01:00:13;;;;;;;;;;;18.90;99.90;;;;;;2075413;28;1976;-66
2021/09/08 01:01:33;;;;;;;;;;;18.90;99.80;;;;;;2076684;28;1906;-65
2021/09/08 01:02:55;;;;;;;;;;;18.90;99.80;;;;;;2081924;28;740;-65
2021/09/08 01:04:15;;;;;;;;;;;18.90;99.90;;;;;;2065386;28;1372;-65
2021/09/08 01:05:34;;;;;;;;;;;18.90;99.90;;;;;;2062330;28;1002;-65
2021/09/08 01:06:57;;;;;;;;;;;18.90;99.90;;;;;;2066827;28;1628;-65
2021/09/08 01:08:16;;;;;;;;;;;18.90;99.90;;;;;;2070687;28;748;-65
2021/09/08 01:09:38;;;;;;;;;;;18.90;99.90;;;;;;2070760;28;734;-65
2021/09/08 01:11:00;;;;;;;;;;;18.90;99.90;;;;;;2070495;28;810;-65
2021/09/08 01:12:21;;;;;;;;;;;18.90;99.90;;;;;;2078992;28;724;-66
2021/09/08 01:13:40;;;;;;;;;;;18.90;99.90;;;;;;2073559;28;753;-66
2021/09/08 01:14:59;;;;;;;;;;;18.80;99.90;;;;;;2070381;28;758;-65
2021/09/08 01:16:18;;;;;;;;;;;18.90;99.90;;;;;;2064920;28;751;-65
2021/09/08 01:17:37;;;;;;;;;;;18.90;99.90;;;;;;2070583;28;718;-65
2021/09/08 01:18:57;;;;;;;;;;;18.80;99.90;;;;;;2076129;28;1519;-66
2021/09/08 01:20:16;;;;;;;;;;;18.90;99.90;;;;;;2069259;28;1017;-65
2021/09/08 01:21:35;;;;;;;;;;;18.80;99.90;;;;;;2071981;28;1976;-65
2021/09/08 01:22:55;;;;;;;;;;;18.90;99.90;;;;;;2065851;28;707;-65
2021/09/08 01:24:14;;;;;;;;;;;18.90;99.90;;;;;;2073313;28;1417;-66
2021/09/08 01:25:33;;;;;;;;;;;18.80;99.90;;;;;;2073387;28;1819;-65
2021/09/08 01:26:55;;;;;;;;;;;18.80;99.90;;;;;;2077721;28;771;-65
2021/09/08 01:28:15;;;;;;;;;;;18.90;99.90;;;;;;2065143;28;1992;-65
2021/09/08 01:29:34;;;;;;;;;;;18.80;99.90;;;;;;2075689;28;713;-65
2021/09/08 01:30:53;;;;;;;;;;;18.90;99.90;;;;;;2073596;28;824;-66
2021/09/08 01:32:13;;;;;;;;;;;18.80;99.90;;;;;;2070378;28;1055;-65
2021/09/08 01:33:32;;;;;;;;;;;18.90;99.90;;;;;;2070067;28;781;-65
2021/09/08 01:34:51;;;;;;;;;;;18.80;99.90;;;;;;2073202;28;760;-66
2021/09/08 01:36:10;;;;;;;;;;;18.80;99.90;;;;;;2077740;28;751;-65
2021/09/08 01:37:30;;;;;;;;;;;18.80;99.90;;;;;;2065108;28;1554;-65
2021/09/08 01:38:56;;;;;;;;;;;18.80;99.90;;;;;;2070589;28;783;-65
2021/09/08 01:40:16;;;;;;;;;;;18.80;99.90;;;;;;2065364;28;725;-65
2021/09/08 01:41:38;;;;;;;;;;;18.80;99.90;;;;;;2070991;28;1910;-65
2021/09/08 01:42:58;;;;;;;;;;;18.80;99.90;;;;;;2065237;28;733;-65
2021/09/08 01:44:20;;;;;;;;;;;18.80;99.90;;;;;;2077035;28;1760;-65
2021/09/08 01:45:42;;;;;;;;;;;18.80;99.90;;;;;;2073251;28;737;-65
2021/09/08 01:47:01;;;;;;;;;;;18.80;99.90;;;;;;2069780;28;787;-66
2021/09/08 01:48:20;;;;;;;;;;;18.80;99.90;;;;;;2073640;28;1049;-65
2021/09/08 01:49:39;;;;;;;;;;;18.80;99.90;;;;;;2062240;28;1001;-65
2021/09/08 01:50:59;;;;;;;;;;;18.80;99.90;;;;;;2058676;28;992;-65
2021/09/08 01:52:19;;;;;;;;;;;18.80;99.90;;;;;;2066523;28;1561;-65
2021/09/08 01:53:38;;;;;;;;;;;18.80;99.90;;;;;;2065054;28;1100;-65
2021/09/08 01:54:58;;;;;;;;;;;18.80;99.90;;;;;;2067153;28;765;-65
2021/09/08 01:56:18;;;;;;;;;;;18.80;99.90;;;;;;2061699;28;776;-65
2021/09/08 01:57:37;;;;;;;;;;;18.80;99.90;;;;;;2070148;28;738;-65
2021/09/08 01:58:56;;;;;;;;;;;18.80;99.90;;;;;;2072339;28;1581;-64
2021/09/08 02:00:16;;;;;;;;;;;18.80;99.90;;;;;;2064910;28;723;-65
2021/09/08 02:01:35;;;;;;;;;;;18.80;99.90;;;;;;2069936;28;1914;-65
2021/09/08 02:02:54;;;;;;;;;;;18.80;99.90;;;;;;2056968;28;693;-65
2021/09/08 02:04:13;;;;;;;;;;;18.80;99.90;;;;;;2058595;28;1411;-64
2021/09/08 02:05:32;;;;;;;;;;;18.80;99.90;;;;;;2062014;28;711;-66
2021/09/08 02:06:52;;;;;;;;;;;18.80;99.90;;;;;;2061378;28;726;-65
2021/09/08 02:08:11;;;;;;;;;;;18.70;99.90;;;;;;2064712;28;734;-65
2021/09/08 02:09:30;;;;;;;;;;;18.80;99.90;;;;;;2057149;28;697;-65
2021/09/08 02:10:49;;;;;;;;;;;18.70;99.90;;;;;;2061686;28;723;-65
2021/09/08 02:12:10;;;;;;;;;;;18.80;99.90;;;;;;2048827;29;768;-66
2021/09/08 02:13:29;;;;;;;;;;;18.70;99.90;;;;;;2055388;28;802;-66
2021/09/08 02:14:48;;;;;;;;;;;18.70;99.90;;;;;;2061137;28;1386;-65
2021/09/08 02:16:07;;;;;;;;;;;18.70;99.90;;;;;;2066479;28;748;-66
2021/09/08 02:17:27;;;;;;;;;;;18.80;99.90;;;;;;2061725;28;1620;-65
2021/09/08 02:18:48;;;;;;;;;;;18.70;99.90;;;;;;2065967;28;1505;-65
2021/09/08 02:20:07;;;;;;;;;;;18.70;99.90;;;;;;2078203;28;961;-64
2021/09/08 02:21:26;;;;;;;;;;;18.70;99.90;;;;;;2064667;28;1076;-66
2021/09/08 02:22:45;;;;;;;;;;;18.80;99.90;;;;;;2066844;28;702;-65
2021/09/08 02:24:05;;;;;;;;;;;18.70;99.90;;;;;;2073462;28;1439;-66
2021/09/08 02:25:24;;;;;;;;;;;18.80;99.90;;;;;;2073038;28;753;-66
2021/09/08 02:26:43;;;;;;;;;;;18.70;99.90;;;;;;2077288;28;765;-65
2021/09/08 02:28:03;;;;;;;;;;;18.80;99.90;;;;;;2064906;28;714;-65
2021/09/08 02:29:22;;;;;;;;;;;18.70;99.90;;;;;;2062127;28;762;-65
2021/09/08 02:30:41;;;;;;;;;;;18.70;99.90;;;;;;2056954;28;713;-65
2021/09/08 02:32:01;;;;;;;;;;;18.70;99.90;;;;;;2062315;28;728;-66
2021/09/08 02:33:20;;;;;;;;;;;18.70;99.90;;;;;;2065542;28;752;-65
2021/09/08 02:34:39;;;;;;;;;;;18.70;99.90;;;;;;2064883;28;1457;-65
2021/09/08 02:35:58;;;;;;;;;;;18.70;99.90;;;;;;2069735;28;723;-65
2021/09/08 02:37:17;;;;;;;;;;;18.70;99.90;;;;;;2064628;28;731;-65
2021/09/08 02:38:36;;;;;;;;;;;18.70;99.90;;;;;;2063947;28;1510;-65
2021/09/08 02:39:56;;;;;;;;;;;18.70;99.90;;;;;;2073140;28;769;-65
2021/09/08 02:41:15;;;;;;;;;;;18.70;99.90;;;;;;2073377;28;692;-65
2021/09/08 02:42:34;;;;;;;;;;;18.70;99.90;;;;;;2064486;28;733;-65
2021/09/08 02:43:53;;;;;;;;;;;18.70;99.90;;;;;;2069416;28;1413;-65
2021/09/08 02:45:13;;;;;;;;;;;18.70;99.90;;;;;;2064423;28;721;-65
2021/09/08 02:46:32;;;;;;;;;;;18.70;99.90;;;;;;2049553;28;741;-64
2021/09/08 02:47:51;;;;;;;;;;;18.70;99.90;;;;;;2066769;28;734;-64
2021/09/08 02:49:11;;;;;;;;;;;18.70;99.90;;;;;;2072784;28;1646;-65
2021/09/08 02:50:30;;;;;;;;;;;18.70;99.90;;;;;;2061467;28;970;-65
2021/09/08 02:51:49;;;;;;;;;;;18.70;99.90;;;;;;2058001;28;716;-65
2021/09/08 02:53:08;;;;;;;;;;;18.70;99.90;;;;;;2061781;28;702;-65
2021/09/08 02:54:28;;;;;;;;;;;18.70;99.90;;;;;;2072284;28;1341;-65
2021/09/08 02:55:47;;;;;;;;;;;18.70;99.90;;;;;;2067999;28;728;-65
2021/09/08 02:57:06;;;;;;;;;;;18.70;99.90;;;;;;2064264;28;745;-65
2021/09/08 02:58:25;;;;;;;;;;;18.70;99.90;;;;;;2065250;28;1719;-66
2021/09/08 02:59:44;;;;;;;;;;;18.70;99.90;;;;;;2064679;28;800;-65
2021/09/08 03:01:04;;;;;;;;;;;18.70;99.90;;;;;;2061651;28;791;-65
2021/09/08 03:02:23;;;;;;;;;;;18.70;99.90;;;;;;2069658;28;1906;-64
2021/09/08 03:03:42;;;;;;;;;;;18.70;99.90;;;;;;2073358;28;746;-65
2021/09/08 03:05:01;;;;;;;;;;;18.70;99.90;;;;;;2056653;28;762;-65
2021/09/08 03:06:21;;;;;;;;;;;18.70;99.90;;;;;;2061134;28;717;-65
2021/09/08 03:07:40;;;;;;;;;;;18.70;99.90;;;;;;2064658;28;708;-64
2021/09/08 03:08:59;;;;;;;;;;;18.70;99.90;;;;;;2069817;28;1301;-64
2021/09/08 03:10:19;;;;;;;;;;;18.70;99.90;;;;;;2072789;28;774;-66
2021/09/08 03:11:38;;;;;;;;;;;18.70;99.90;;;;;;2069451;28;736;-65
2021/09/08 03:12:57;;;;;;;;;;;18.70;99.90;;;;;;2064057;28;1338;-65
2021/09/08 03:14:16;;;;;;;;;;;18.70;99.90;;;;;;2074375;28;1440;-64
2021/09/08 03:15:37;;;;;;;;;;;18.70;99.90;;;;;;2064745;28;729;-66
2021/09/08 03:16:56;;;;;;;;;;;18.70;99.90;;;;;;2065867;28;1411;-64
2021/09/08 03:18:15;;;;;;;;;;;18.70;99.90;;;;;;2065416;28;1141;-65
2021/09/08 03:19:35;;;;;;;;;;;18.60;99.90;;;;;;2067802;28;943;-65
2021/09/08 03:20:54;;;;;;;;;;;18.70;99.90;;;;;;2065649;28;921;-65
2021/09/08 03:22:14;;;;;;;;;;;18.60;99.90;;;;;;2064540;28;1934;-65
2021/09/08 03:23:33;;;;;;;;;;;18.60;99.90;;;;;;2066193;28;735;-65
2021/09/08 03:24:52;;;;;;;;;;;18.70;99.90;;;;;;2069086;28;740;-64
2021/09/08 03:26:11;;;;;;;;;;;18.60;99.90;;;;;;2064048;28;731;-65
2021/09/08 03:27:31;;;;;;;;;;;18.60;99.90;;;;;;2069174;28;737;-65
2021/09/08 03:28:50;;;;;;;;;;;18.60;99.90;;;;;;2069231;28;1601;-65
2021/09/08 03:30:09;;;;;;;;;;;18.70;99.90;;;;;;2069528;28;730;-65
2021/09/08 03:31:29;;;;;;;;;;;18.70;99.90;;;;;;2064356;28;715;-65
2021/09/08 03:32:48;;;;;;;;;;;18.60;99.90;;;;;;2061239;28;722;-65
2021/09/08 03:34:07;;;;;;;;;;;18.60;99.90;;;;;;2060980;28;1798;-65
2021/09/08 03:35:27;;;;;;;;;;;18.70;99.90;;;;;;2069378;28;713;-65
2021/09/08 03:36:46;;;;;;;;;;;18.70;99.90;;;;;;2071870;28;787;-65
2021/09/08 03:38:05;;;;;;;;;;;18.60;99.90;;;;;;2064322;28;723;-65
2021/09/08 03:39:25;;;;;;;;;;;18.70;99.90;;;;;;2077078;28;1384;-65
2021/09/08 03:40:44;;;;;;;;;;;18.60;99.90;;;;;;2072506;28;736;-65
2021/09/08 03:42:03;;;;;;;;;;;18.60;99.90;;;;;;2077433;28;1930;-65
2021/09/08 03:43:22;;;;;;;;;;;18.60;99.90;;;;;;2072800;28;762;-66
2021/09/08 03:44:41;;;;;;;;;;;18.60;99.90;;;;;;2077631;28;1389;-65
2021/09/08 03:46:04;;;;;;;;;;;18.60;99.90;;;;;;2063839;28;772;-66
2021/09/08 03:47:24;;;;;;;;;;;18.60;99.90;;;;;;2067530;28;1532;-66
2021/09/08 03:48:43;;;;;;;;;;;18.60;99.90;;;;;;2063880;28;1593;-65
2021/09/08 03:50:03;;;;;;;;;;;18.60;99.90;;;;;;2069133;28;993;-66
2021/09/08 03:51:22;;;;;;;;;;;18.60;99.90;;;;;;2069165;28;986;-65
2021/09/08 03:52:41;;;;;;;;;;;18.60;99.90;;;;;;2057326;28;1168;-65
2021/09/08 03:54:01;;;;;;;;;;;18.60;99.90;;;;;;2055114;28;1469;-65
2021/09/08 03:55:20;;;;;;;;;;;18.60;99.90;;;;;;2067557;28;1041;-65
2021/09/08 03:56:39;;;;;;;;;;;18.60;99.90;;;;;;2069566;28;1020;-65
2021/09/08 03:57:58;;;;;;;;;;;18.60;99.90;;;;;;2069924;28;1449;-65
2021/09/08 03:59:21;;;;;;;;;;;18.60;99.90;;;;;;2067924;28;1183;-65
2021/09/08 04:00:40;;;;;;;;;;;18.60;99.90;;;;;;2070045;28;1182;-65
2021/09/08 04:01:59;;;;;;;;;;;18.60;99.90;;;;;;2069903;28;1898;-66
2021/09/08 04:03:20;;;;;;;;;;;18.60;99.90;;;;;;2070105;28;1050;-65
2021/09/08 04:04:40;;;;;;;;;;;18.60;99.90;;;;;;2065676;28;1434;-65
2021/09/08 04:06:00;;;;;;;;;;;18.60;99.90;;;;;;2062790;28;1223;-66
2021/09/08 04:07:20;;;;;;;;;;;18.60;99.90;;;;;;2059748;28;1474;-65
2021/09/08 04:08:39;;;;;;;;;;;18.60;99.90;;;;;;2064517;28;1481;-65
2021/09/08 04:09:58;;;;;;;;;;;18.60;99.90;;;;;;2074800;28;971;-65
2021/09/08 04:11:17;;;;;;;;;;;18.60;99.90;;;;;;2068533;28;1418;-65
2021/09/08 04:12:36;;;;;;;;;;;18.60;99.90;;;;;;2074357;28;1224;-65
2021/09/08 04:13:56;;;;;;;;;;;18.50;99.90;;;;;;2070776;28;1520;-66
2021/09/08 04:15:15;;;;;;;;;;;18.50;99.90;;;;;;2049950;28;1456;-65
2021/09/08 04:16:34;;;;;;;;;;;18.50;99.90;;;;;;2062668;28;1179;-66
2021/09/08 04:17:54;;;;;;;;;;;18.50;99.90;;;;;;2068142;28;1452;-65
2021/09/08 04:19:14;;;;;;;;;;;18.50;99.90;;;;;;2075949;28;1200;-65
2021/09/08 04:20:33;;;;;;;;;;;18.50;99.90;;;;;;2069421;28;1218;-66
2021/09/08 04:21:52;;;;;;;;;;;18.60;99.90;;;;;;2074273;28;2356;-65
2021/09/08 04:23:12;;;;;;;;;;;18.50;99.90;;;;;;2060593;28;1103;-65
2021/09/08 04:24:31;;;;;;;;;;;18.50;99.90;;;;;;2072197;28;1528;-66
2021/09/08 04:25:50;;;;;;;;;;;18.50;99.90;;;;;;2074028;28;1311;-65
2021/09/08 04:27:10;;;;;;;;;;;18.60;99.90;;;;;;2071958;28;989;-65
2021/09/08 04:28:29;;;;;;;;;;;18.60;99.90;;;;;;2070934;28;1538;-65
2021/09/08 04:29:48;;;;;;;;;;;18.50;99.90;;;;;;2077581;28;1357;-66
2021/09/08 04:31:07;;;;;;;;;;;18.50;99.90;;;;;;2068424;28;1191;-65
2021/09/08 04:32:26;;;;;;;;;;;18.50;99.90;;;;;;2058921;28;1185;-65
2021/09/08 04:33:46;;;;;;;;;;;18.50;99.90;;;;;;2062303;28;1143;-65
2021/09/08 04:35:05;;;;;;;;;;;18.50;99.90;;;;;;2067122;28;1344;-65
2021/09/08 04:36:24;;;;;;;;;;;18.50;99.90;;;;;;2070081;28;1162;-66
2021/09/08 04:37:44;;;;;;;;;;;18.50;99.90;;;;;;2069778;28;1424;-65
2021/09/08 04:39:03;;;;;;;;;;;18.50;99.90;;;;;;2068768;28;1370;-65
2021/09/08 04:40:22;;;;;;;;;;;18.50;99.90;;;;;;2064941;28;1085;-66
2021/09/08 04:41:42;;;;;;;;;;;18.50;99.90;;;;;;2072072;28;1914;-65
2021/09/08 04:43:02;;;;;;;;;;;18.50;99.90;;;;;;2061084;28;962;-65
2021/09/08 04:44:21;;;;;;;;;;;18.50;99.90;;;;;;2061592;28;1444;-65
2021/09/08 04:45:40;;;;;;;;;;;18.50;99.90;;;;;;2068709;28;1029;-65
2021/09/08 04:46:59;;;;;;;;;;;18.50;99.90;;;;;;2067214;28;1289;-66
2021/09/08 04:48:18;;;;;;;;;;;18.50;99.90;;;;;;2060583;28;1274;-65
2021/09/08 04:49:38;;;;;;;;;;;18.50;99.90;;;;;;2068633;28;1213;-66
2021/09/08 04:50:57;;;;;;;;;;;18.50;99.90;;;;;;2076199;28;1371;-66
2021/09/08 04:52:16;;;;;;;;;;;18.50;99.90;;;;;;2072276;28;1276;-66
2021/09/08 04:53:35;;;;;;;;;;;18.50;99.90;;;;;;2070496;28;1232;-67
2021/09/08 04:54:55;;;;;;;;;;;18.50;99.90;;;;;;2065851;28;1308;-65
2021/09/08 04:56:14;;;;;;;;;;;18.50;99.90;;;;;;2055355;28;1257;-62
2021/09/08 04:57:33;;;;;;;;;;;18.50;99.90;;;;;;2064074;28;1269;-66
2021/09/08 04:58:52;;;;;;;;;;;18.60;99.90;;;;;;2072260;28;1469;-65
2021/09/08 05:00:12;;;;;;;;;;;18.60;99.90;;;;;;2072009;28;1141;-67
2021/09/08 05:01:31;;;;;;;;;;;18.60;99.90;;;;;;2080554;28;1164;-66
2021/09/08 05:02:51;;;;;;;;;;;18.60;99.90;;;;;;2071306;28;1410;-66
2021/09/08 05:04:10;;;;;;;;;;;18.60;99.90;;;;;;2072505;28;1373;-66
2021/09/08 05:05:30;;;;;;;;;;;18.60;99.90;;;;;;2064400;28;986;-65
2021/09/08 05:06:52;;;;;;;;;;;18.60;99.90;;;;;;2060065;28;1065;-65
2021/09/08 05:08:12;;;;;;;;;;;18.60;99.90;;;;;;2068249;28;1114;-66
2021/09/08 05:09:37;;;;;;;;;;;18.60;99.90;;;;;;2071999;28;1307;-65
2021/09/08 05:10:57;;;;;;;;;;;18.60;99.90;;;;;;2069238;28;1120;-64
2021/09/08 05:12:17;;;;;;;;;;;18.50;99.90;;;;;;2072524;28;1516;-65
2021/09/08 05:13:51;;;;;;;;;;;18.50;99.90;;;;;;2068354;28;1242;-66
2021/09/08 05:15:13;;;;;;;;;;;18.50;99.90;;;;;;2062613;28;947;-65
2021/09/08 05:16:33;;;;;;;;;;;18.50;99.90;;;;;;2065559;28;1131;-66
2021/09/08 05:17:55;;;;;;;;;;;18.50;99.90;;;;;;2070716;28;903;-66
2021/09/08 05:19:17;;;;;;;;;;;18.50;99.90;;;;;;2059968;28;1171;-66
2021/09/08 05:20:37;;;;;;;;;;;18.50;99.90;;;;;;2068248;28;1076;-64
2021/09/08 05:22:05;;;;;;;;;;;18.50;99.90;;;;;;2061918;28;1973;-65
2021/09/08 05:23:25;;;;;;;;;;;18.50;99.90;;;;;;2067716;28;1185;-66
2021/09/08 05:24:50;;;;;;;;;;;18.50;99.90;;;;;;2070337;28;1460;-65
2021/09/08 05:26:16;;;;;;;;;;;18.50;99.90;;;;;;2062230;28;1075;-66
2021/09/08 05:27:45;;;;;;;;;;;18.50;99.90;;;;;;2070130;28;1075;-66
2021/09/08 05:29:06;;;;;;;;;;;18.50;99.90;;;;;;2054389;28;1272;-65
2021/09/08 05:30:25;;;;;;;;;;;18.50;99.90;;;;;;2054155;28;1530;-65
2021/09/08 05:31:53;;;;;;;;;;;18.50;99.90;;;;;;2065815;28;1250;-65
2021/09/08 05:33:16;;;;;;;;;;;18.50;99.90;;;;;;2076611;28;1042;-65
2021/09/08 05:34:35;;;;;;;;;;;18.50;99.90;;;;;;2062480;28;1433;-65
2021/09/08 05:35:55;;;;;;;;;;;18.50;99.90;;;;;;2066164;28;1098;-65
2021/09/08 05:37:14;;;;;;;;;;;18.50;99.90;;;;;;2068108;28;1204;-65
2021/09/08 05:38:45;;;;;;;;;;;18.40;99.90;;;;;;2078575;28;1115;-65
2021/09/08 05:40:06;;;;;;;;;;;18.40;99.90;;;;;;2063478;28;979;-65
2021/09/08 05:41:34;;;;;;;;;;;18.50;99.90;;;;;;2067312;28;1341;-65
2021/09/08 05:43:00;;;;;;;;;;;18.50;99.90;;;;;;2075981;28;997;-65
2021/09/08 05:44:42;;;;;;;;;;;18.40;99.90;;;;;;2070476;28;1448;-66
2021/09/08 05:46:05;;;;;;;;;;;18.40;99.90;;;;;;2071043;28;1165;-65
2021/09/08 05:47:27;;;;;;;;;;;18.50;99.90;;;;;;2067222;28;1064;-63
2021/09/08 05:48:46;;;;;;;;;;;18.50;99.90;;;;;;2068709;28;987;-67
2021/09/08 05:50:06;;;;;;;;;;;18.50;99.90;;;;;;2064290;28;1095;-66
2021/09/08 05:51:28;;;;;;;;;;;18.50;99.90;;;;;;2064763;28;1034;-66
2021/09/08 05:52:48;;;;;;;;;;;18.40;99.90;;;;;;2067312;28;1251;-66
2021/09/08 05:54:07;;;;;;;;;;;18.50;99.90;;;;;;2065871;28;1477;-66
2021/09/08 05:55:30;;;;;;;;;;;18.40;99.90;;;;;;2069608;28;1159;-65
2021/09/08 05:56:50;;;;;;;;;;;18.40;99.90;;;;;;2060778;28;1302;-65
2021/09/08 05:58:12;;;;;;;;;;;18.40;99.90;;;;;;2074596;28;1148;-66
2021/09/08 05:59:34;;;;;;;;;;;18.40;99.90;;;;;;2064265;28;1057;-66
2021/09/08 06:00:54;;;;;;;;;;;18.40;99.90;;;;;;2058072;28;1175;-67
2021/09/08 06:02:13;;;;;;;;;;;18.50;99.90;;;;;;2057202;28;1973;-65
2021/09/08 06:03:33;;;;;;;;;;;18.40;99.90;;;;;;2066913;28;1295;-66
2021/09/08 06:04:55;;;;;;;;;;;18.40;99.90;;;;;;2070418;28;1369;-66
2021/09/08 06:06:15;;;;;;;;;;;18.40;99.90;;;;;;2076261;28;1179;-66
2021/09/08 06:07:34;;;;;;;;;;;18.40;99.90;;;;;;2054506;28;880;-66
2021/09/08 06:08:57;;;;;;;;;;;18.50;99.90;;;;;;2064836;28;1017;-66
2021/09/08 06:10:23;;;;;;;;;;;18.40;99.90;;;;;;2068869;28;1319;-65
2021/09/08 06:11:43;;;;;;;;;;;18.50;99.90;;;;;;2060868;28;1494;-65
2021/09/08 06:13:02;;;;;;;;;;;18.50;99.90;;;;;;2067081;28;1276;-65
2021/09/08 06:14:22;;;;;;;;;;;18.40;99.90;;;;;;2068593;28;1417;-66
2021/09/08 06:15:42;;;;;;;;;;;18.50;99.90;;;;;;2070080;28;1248;-65
2021/09/08 06:17:05;;;;;;;;;;;18.40;99.90;;;;;;2065601;28;1562;-66
2021/09/08 06:18:24;;;;;;;;;;;18.50;99.90;;;;;;2055668;28;1060;-65
2021/09/08 06:19:43;;;;;;;;;;;18.50;99.90;;;;;;2073248;28;1005;-65
2021/09/08 06:21:03;;;;;;;;;;;18.40;99.90;;;;;;2061594;28;998;-65
2021/09/08 06:22:22;;;;;;;;;;;18.40;99.90;;;;;;2055971;28;1907;-65
2021/09/08 06:23:42;;;;;;;;;;;18.50;99.90;;;;;;2066957;28;1123;-65
2021/09/08 06:25:01;;;;;;;;;;;18.50;99.90;;;;;;2071843;28;1250;-67
2021/09/08 06:26:21;;;;;;;;;;;18.40;99.90;;;;;;2064036;28;881;-66
2021/09/08 06:27:40;;;;;;;;;;;18.40;99.90;;;;;;2071300;28;1029;-65
2021/09/08 06:28:59;;;;;;;;;;;18.50;99.90;;;;;;2063233;28;1346;-65
2021/09/08 06:30:18;;;;;;;;;;;18.50;99.90;;;;;;2069202;28;776;-65
2021/09/08 06:31:38;;;;;;;;;;;18.40;99.90;;;;;;2072438;28;1643;-65
2021/09/08 06:32:57;;;;;;;;;;;18.40;99.90;;;;;;2081150;28;729;-68
2021/09/08 06:34:20;;;;;;;;;;;18.50;99.90;;;;;;2076690;28;1365;-65
2021/09/08 06:35:39;;;;;;;;;;;18.50;99.90;;;;;;2064971;28;839;-65
2021/09/08 06:36:58;;;;;;;;;;;18.50;99.90;;;;;;2064412;28;722;-66
2021/09/08 06:38:17;;;;;;;;;;;18.50;99.90;;;;;;2064644;28;730;-66
2021/09/08 06:39:37;;;;;;;;;;;18.50;99.90;;;;;;2061900;28;731;-65
2021/09/08 06:40:58;;;;;;;;;;;18.50;99.90;;;;;;2061551;28;738;-65
2021/09/08 06:42:18;;;;;;;;;;;18.40;99.90;;;;;;2061822;28;1906;-65
2021/09/08 06:43:38;;;;;;;;;;;18.50;99.90;;;;;;2073177;28;1186;-65
2021/09/08 06:44:58;;;;;;;;;;;18.50;99.90;;;;;;2073243;28;1525;-66
2021/09/08 06:46:17;;;;;;;;;;;18.50;99.90;;;;;;2064137;28;702;-66
2021/09/08 06:47:40;;;;;;;;;;;18.50;99.90;;;;;;2062132;28;697;-66
2021/09/08 06:49:00;;;;;;;;;;;18.50;99.90;;;;;;2063595;28;1956;-65
2021/09/08 06:50:20;;;;;;;;;;;18.50;99.90;;;;;;2060231;28;1765;-65
2021/09/08 06:51:42;;;;;;;;;;;18.50;99.90;;;;;;2069737;28;705;-65
2021/09/08 06:53:05;;;;;;;;;;;18.50;99.90;;;;;;2066909;28;1543;-65
2021/09/08 06:54:24;;;;;;;;;;;18.50;99.90;;;;;;2052900;28;1430;-65
2021/09/08 06:55:44;;;;;;;;;;;18.50;99.90;;;;;;2064807;28;1065;-65
2021/09/08 06:57:03;;;;;;;;;;;18.50;99.90;;;;;;2072619;28;1264;-66
2021/09/08 06:58:25;;;;;;;;;;;18.50;99.90;;;;;;2061355;28;1314;-67
2021/09/08 06:59:44;;;;;;;;;;;18.50;99.90;;;;;;2065918;28;1167;-67
2021/09/08 07:01:04;;;;;;;;;;;18.50;99.90;;;;;;2067641;28;1091;-66
2021/09/08 07:02:27;;;;;;;;;;;18.50;99.90;;;;;;2066877;28;1902;-66
2021/09/08 07:03:59;;;;;;;;;;;18.50;99.90;;;;;;2070907;28;1271;-65
2021/09/08 07:05:21;;;;;;;;;;;18.50;99.90;;;;;;2075819;28;1690;-64
2021/09/08 07:06:40;;;;;;;;;;;18.50;99.90;;;;;;2064549;28;1157;-64
2021/09/08 07:08:01;;;;;;;;;;;18.50;99.90;;;;;;2072926;28;1262;-64
2021/09/08 07:09:21;;;;;;;;;;;18.50;99.90;;;;;;2071261;28;1342;-64
2021/09/08 07:10:40;;;;;;;;;;;18.50;99.90;;;;;;2068979;28;1365;-66
2021/09/08 07:12:00;;;;;;;;;;;18.50;99.90;;;;;;2068212;28;1144;-64
2021/09/08 07:13:19;;;;;;;;;;;18.50;99.90;;;;;;2061022;28;1319;-64
2021/09/08 07:14:38;;;;;;;;;;;18.50;99.90;;;;;;2068971;28;1474;-64
2021/09/08 07:15:57;;;;;;;;;;;18.50;99.90;;;;;;2079776;28;1309;-64
2021/09/08 07:17:17;;;;;;;;;;;18.50;99.90;;;;;;2061016;28;1129;-64
2021/09/08 07:18:39;;;;;;;;;;;18.50;99.90;;;;;;2072955;28;1167;-65
2021/09/08 07:20:01;;;;;;;;;;;18.50;99.90;;;;;;2071274;28;1678;-65
2021/09/08 07:21:20;;;;;;;;;;;18.50;99.90;;;;;;2059739;28;1282;-65
2021/09/08 07:22:40;;;;;;;;;;;18.50;99.90;;;;;;2069380;28;1914;-65
2021/09/08 07:23:59;;;;;;;;;;;18.50;99.90;;;;;;2064212;28;1500;-65
2021/09/08 07:25:18;;;;;;;;;;;18.50;99.90;;;;;;2066270;28;1838;-65
2021/09/08 07:26:37;;;;;;;;;;;18.50;99.90;;;;;;2069680;28;1108;-65
2021/09/08 07:27:57;;;;;;;;;;;18.50;99.90;;;;;;2056072;28;1288;-64
2021/09/08 07:29:16;;;;;;;;;;;18.50;99.90;;;;;;2068309;28;1261;-64
2021/09/08 07:30:35;;;;;;;;;;;18.50;99.90;;;;;;2075328;28;1115;-64
2021/09/08 07:31:55;;;;;;;;;;;18.50;99.90;;;;;;2072287;28;1138;-65
2021/09/08 07:33:14;;;;;;;;;;;18.50;99.90;;;;;;2066883;28;1580;-65
2021/09/08 07:34:33;;;;;;;;;;;18.50;99.90;;;;;;2068244;28;1461;-65
2021/09/08 07:35:53;;;;;;;;;;;18.50;99.90;;;;;;2076748;28;1322;-66
2021/09/08 07:37:12;;;;;;;;;;;18.50;99.90;;;;;;2070602;28;1168;-66
2021/09/08 07:38:32;;;;;;;;;;;18.50;99.90;;;;;;2066157;28;1567;-65
2021/09/08 07:39:51;;;;;;;;;;;18.50;99.90;;;;;;2066216;28;1230;-66
2021/09/08 07:41:10;;;;;;;;;;;18.50;99.90;;;;;;2065357;28;1225;-65
2021/09/08 07:42:30;;;;;;;;;;;18.50;99.90;;;;;;2059575;28;2005;-65
2021/09/08 07:43:49;;;;;;;;;;;18.50;99.90;;;;;;2073481;28;1266;-65
2021/09/08 07:45:08;;;;;;;;;;;18.50;99.90;;;;;;2066828;28;1375;-66
2021/09/08 07:46:27;;;;;;;;;;;18.50;99.90;;;;;;2066876;28;1336;-65
2021/09/08 07:47:47;;;;;;;;;;;18.50;99.90;;;;;;2068923;28;1433;-66
2021/09/08 07:49:06;;;;;;;;;;;18.50;99.90;;;;;;2060793;28;839;-65
2021/09/08 07:50:25;;;;;;;;;;;18.50;99.90;;;;;;2048022;28;1285;-65
2021/09/08 07:51:44;;;;;;;;;;;18.50;99.90;;;;;;2071301;28;1125;-66
2021/09/08 07:53:08;;;;;;;;;;;18.50;99.90;;;;;;2066429;28;1387;-65
2021/09/08 07:54:27;;;;;;;;;;;18.50;99.90;;;;;;2065264;28;1417;-66
2021/09/08 07:55:47;;;;;;;;;;;18.50;99.90;;;;;;2072344;28;1077;-66